createdAt,value
2019-06-01T00:01:07.463Z,99.90
2019-06-01T00:03:38.125Z,99.90
2019-06-01T00:06:07.760Z,99.90
2019-06-01T00:08:37.137Z,99.90
2019-06-01T00:11:06.696Z,99.90
2019-06-01T00:13:36.090Z,99.90
2019-06-01T00:16:05.465Z,99.90
2019-06-01T00:18:34.887Z,99.90
2019-06-01T00:21:04.336Z,99.90
2019-06-01T00:23:33.809Z,99.90
2019-06-01T00:26:03.264Z,99.90
2019-06-01T00:28:32.533Z,99.90
2019-06-01T00:31:01.963Z,99.90
2019-06-01T00:33:31.400Z,99.90
2019-06-01T00:36:01.028Z,99.90
2019-06-01T00:38:30.398Z,99.90
2019-06-01T00:40:59.708Z,99.90
2019-06-01T00:43:29.072Z,99.90
2019-06-01T00:45:58.404Z,99.90
2019-06-01T00:48:27.793Z,99.90
2019-06-01T00:50:57.229Z,99.90
2019-06-01T00:53:26.595Z,99.90
2019-06-01T00:55:56.043Z,99.90
2019-06-01T00:58:25.473Z,99.90
2019-06-01T01:00:55.303Z,99.90
2019-06-01T01:03:24.972Z,99.90
2019-06-01T01:05:54.860Z,99.90
2019-06-01T01:08:24.256Z,99.90
2019-06-01T01:10:55.017Z,99.90
2019-06-01T01:13:25.995Z,99.90
2019-06-01T01:15:55.611Z,99.90
2019-06-01T01:18:25.170Z,99.90
2019-06-01T01:20:54.607Z,99.90
2019-06-01T01:23:24.063Z,99.90
2019-06-01T01:25:54.529Z,99.90
2019-06-01T01:28:24.115Z,99.90
2019-06-01T01:31:06.916Z,99.90
2019-06-01T01:33:24.750Z,99.90
2019-06-01T01:35:54.281Z,99.90
2019-06-01T01:38:23.825Z,99.90
2019-06-01T01:40:54.174Z,99.90
2019-06-01T01:43:23.764Z,99.90
2019-06-01T01:45:53.232Z,99.90
2019-06-01T01:48:22.635Z,99.90
2019-06-01T01:50:52.380Z,99.90
2019-06-01T01:53:21.851Z,99.90
2019-06-01T01:55:51.171Z,99.90
2019-06-01T01:58:20.539Z,99.90
2019-06-01T02:00:52.944Z,99.90
2019-06-01T02:03:21.614Z,99.90
2019-06-01T02:05:51.112Z,99.90
2019-06-01T02:08:20.553Z,99.90
2019-06-01T02:10:51.110Z,99.90
2019-06-01T02:13:20.763Z,99.90
2019-06-01T02:15:50.120Z,99.90
2019-06-01T02:18:19.559Z,99.90
2019-06-01T02:20:49.012Z,99.90
2019-06-01T02:23:18.391Z,99.90
2019-06-01T02:25:47.741Z,99.90
2019-06-01T02:28:17.212Z,99.90
2019-06-01T02:30:47.275Z,99.90
2019-06-01T02:33:16.624Z,99.90
2019-06-01T02:35:46.082Z,99.90
2019-06-01T02:38:15.521Z,99.90
2019-06-01T02:40:45.055Z,99.90
2019-06-01T02:43:14.443Z,99.90
2019-06-01T02:45:43.820Z,99.90
2019-06-01T02:48:13.192Z,99.90
2019-06-01T02:50:42.869Z,99.90
2019-06-01T02:53:12.410Z,99.90
2019-06-01T02:55:41.850Z,99.90
2019-06-01T02:58:11.348Z,99.90
2019-06-01T03:01:25.553Z,99.90
2019-06-01T03:03:57.635Z,99.90
2019-06-01T03:06:29.733Z,99.90
2019-06-01T03:09:01.874Z,99.90
2019-06-01T03:11:37.363Z,99.90
2019-06-01T03:14:09.034Z,99.90
2019-06-01T03:16:42.991Z,99.90
2019-06-01T03:19:14.037Z,99.90
2019-06-01T03:21:47.271Z,99.90
2019-06-01T03:24:17.401Z,99.90
2019-06-01T03:26:47.870Z,99.90
2019-06-01T03:29:20.502Z,99.90
2019-06-01T03:31:50.281Z,99.90
2019-06-01T03:34:19.777Z,99.90
2019-06-01T03:36:49.607Z,99.90
2019-06-01T03:39:19.341Z,99.90
2019-06-01T03:41:49.256Z,99.90
2019-06-01T03:44:19.146Z,99.90
2019-06-01T03:46:48.589Z,99.90
2019-06-01T03:49:18.023Z,99.90
2019-06-01T03:51:47.380Z,99.90
2019-06-01T03:54:16.775Z,99.90
2019-06-01T03:56:46.232Z,99.90
2019-06-01T03:59:15.773Z,99.90
2019-06-01T04:01:47.190Z,99.90
2019-06-01T04:04:16.355Z,99.90
2019-06-01T04:06:45.710Z,99.90
2019-06-01T04:09:15.150Z,99.90
2019-06-01T04:11:44.477Z,99.90
2019-06-01T04:14:13.786Z,99.90
2019-06-01T04:16:43.634Z,99.90
2019-06-01T04:19:12.951Z,99.90
2019-06-01T04:21:42.472Z,99.90
2019-06-01T04:24:12.360Z,99.90
2019-06-01T04:26:41.849Z,99.90
2019-06-01T04:29:12.585Z,99.90
2019-06-01T04:31:42.185Z,99.90
2019-06-01T04:34:11.543Z,99.90
2019-06-01T04:36:41.047Z,99.90
2019-06-01T04:39:11.670Z,99.90
2019-06-01T04:41:41.319Z,99.90
2019-06-01T04:44:12.097Z,99.90
2019-06-01T04:46:41.543Z,99.90
2019-06-01T04:49:11.081Z,99.90
2019-06-01T04:51:40.443Z,99.90
2019-06-01T04:54:11.301Z,99.90
2019-06-01T04:56:41.067Z,99.90
2019-06-01T04:59:10.960Z,99.90
2019-06-01T05:01:40.646Z,99.90
2019-06-01T05:04:11.167Z,99.90
2019-06-01T05:06:40.640Z,99.90
2019-06-01T05:09:11.262Z,99.90
2019-06-01T05:11:40.952Z,99.90
2019-06-01T05:14:11.542Z,99.90
2019-06-01T05:16:41.072Z,99.90
2019-06-01T05:19:10.482Z,99.90
2019-06-01T05:21:39.971Z,99.90
2019-06-01T05:24:10.586Z,99.90
2019-06-01T05:26:40.223Z,99.90
2019-06-01T05:29:09.584Z,99.90
2019-06-01T05:31:39.053Z,99.90
2019-06-01T05:34:09.628Z,99.90
2019-06-01T05:36:39.171Z,99.90
2019-06-01T05:39:10.232Z,99.90
2019-06-01T05:41:39.809Z,99.90
2019-06-01T05:44:09.140Z,99.90
2019-06-01T05:46:38.611Z,99.90
2019-06-01T05:49:08.075Z,99.90
2019-06-01T05:51:37.479Z,99.90
2019-06-01T05:54:07.001Z,99.90
2019-06-01T05:56:36.367Z,99.90
2019-06-01T05:59:05.844Z,99.90
2019-06-01T06:01:35.261Z,99.90
2019-06-01T06:04:04.664Z,99.90
2019-06-01T06:06:34.066Z,99.90
2019-06-01T06:09:04.080Z,99.90
2019-06-01T06:11:33.450Z,99.90
2019-06-01T06:14:02.901Z,99.90
2019-06-01T06:16:32.353Z,99.90
2019-06-01T06:19:01.764Z,99.90
2019-06-01T06:21:31.091Z,99.90
2019-06-01T06:24:00.484Z,99.90
2019-06-01T06:26:29.969Z,99.90
2019-06-01T06:28:59.354Z,99.90
2019-06-01T06:31:28.710Z,99.90
2019-06-01T06:33:58.364Z,99.90
2019-06-01T06:36:27.797Z,99.90
2019-06-01T06:38:57.167Z,99.90
2019-06-01T06:41:26.526Z,99.90
2019-06-01T06:43:55.960Z,99.90
2019-06-01T06:46:25.565Z,99.90
2019-06-01T06:48:55.046Z,99.90
2019-06-01T06:51:25.529Z,99.90
2019-06-01T06:53:55.090Z,99.90
2019-06-01T06:56:24.524Z,99.90
2019-06-01T06:58:53.872Z,99.90
2019-06-01T07:01:24.762Z,99.90
2019-06-01T07:03:54.251Z,99.90
2019-06-01T07:06:23.757Z,99.90
2019-06-01T07:08:53.275Z,99.90
2019-06-01T07:11:23.394Z,99.90
2019-06-01T07:13:52.983Z,99.90
2019-06-01T07:16:23.426Z,99.90
2019-06-01T07:18:53.040Z,99.90
2019-06-01T07:21:23.644Z,99.90
2019-06-01T07:23:53.276Z,99.90
2019-06-01T07:26:23.998Z,99.90
2019-06-01T07:28:53.772Z,99.90
2019-06-01T07:31:24.143Z,99.90
2019-06-01T07:33:53.759Z,99.90
2019-06-01T07:36:24.393Z,99.90
2019-06-01T07:38:53.984Z,99.90
2019-06-01T07:41:24.563Z,99.90
2019-06-01T07:43:54.248Z,99.90
2019-06-01T07:46:24.810Z,99.90
2019-06-01T07:48:54.420Z,99.90
2019-06-01T07:51:25.122Z,99.90
2019-06-01T07:53:54.632Z,99.90
2019-06-01T07:56:24.355Z,99.90
2019-06-01T07:58:53.854Z,99.90
2019-06-01T08:01:25.167Z,99.90
2019-06-01T08:03:54.408Z,99.90
2019-06-01T08:06:24.551Z,99.90
2019-06-01T08:08:55.015Z,99.90
2019-06-01T08:11:29.037Z,99.90
2019-06-01T08:13:55.592Z,99.90
2019-06-01T08:16:25.895Z,99.90
2019-06-01T08:18:55.777Z,99.90
2019-06-01T08:21:26.018Z,99.90
2019-06-01T08:23:55.504Z,99.90
2019-06-01T08:26:24.940Z,99.90
2019-06-01T08:28:54.365Z,99.90
2019-06-01T08:31:24.546Z,99.90
2019-06-01T08:33:53.971Z,99.90
2019-06-01T08:36:23.255Z,99.90
2019-06-01T08:38:52.693Z,99.90
2019-06-01T08:41:23.248Z,99.90
2019-06-01T08:43:52.922Z,99.90
2019-06-01T08:46:23.578Z,99.90
2019-06-01T08:48:53.187Z,99.90
2019-06-01T08:51:23.967Z,99.90
2019-06-01T08:53:53.404Z,99.90
2019-06-01T08:56:24.115Z,99.90
2019-06-01T08:58:53.735Z,99.90
2019-06-01T09:01:24.429Z,99.90
2019-06-01T09:03:54.033Z,99.90
2019-06-01T09:06:24.736Z,99.90
2019-06-01T09:08:54.262Z,99.90
2019-06-01T09:11:24.971Z,99.90
2019-06-01T09:13:54.569Z,99.90
2019-06-01T09:16:25.358Z,99.90
2019-06-01T09:18:55.144Z,99.90
2019-06-01T09:21:25.374Z,99.90
2019-06-01T09:23:55.029Z,99.90
2019-06-01T09:26:26.271Z,99.90
2019-06-01T09:28:55.659Z,99.90
2019-06-01T09:31:26.274Z,99.90
2019-06-01T09:33:55.853Z,99.90
2019-06-01T09:36:26.127Z,99.90
2019-06-01T09:38:55.764Z,99.90
2019-06-01T09:41:26.347Z,99.90
2019-06-01T09:43:55.952Z,99.90
2019-06-01T09:46:25.344Z,99.90
2019-06-01T09:48:54.802Z,99.90
2019-06-01T09:51:24.386Z,99.90
2019-06-01T09:53:53.926Z,99.90
2019-06-01T09:56:23.334Z,99.90
2019-06-01T09:58:52.775Z,99.90
2019-06-01T10:01:22.150Z,99.90
2019-06-01T10:03:51.734Z,99.90
2019-06-01T10:06:21.237Z,99.90
2019-06-01T10:08:50.923Z,99.90
2019-06-01T10:11:20.372Z,99.90
2019-06-01T10:13:49.805Z,99.90
2019-06-01T10:16:19.209Z,99.90
2019-06-01T10:18:48.646Z,99.90
2019-06-01T10:21:18.233Z,99.90
2019-06-01T10:23:49.722Z,99.90
2019-06-01T10:26:18.987Z,99.90
2019-06-01T10:28:48.431Z,99.90
2019-06-01T10:31:17.757Z,99.90
2019-06-01T10:33:50.611Z,99.90
2019-06-01T10:36:21.138Z,99.90
2019-06-01T10:38:49.355Z,99.90
2019-06-01T10:41:18.944Z,99.90
2019-06-01T10:43:48.433Z,99.90
2019-06-01T10:46:17.764Z,99.90
2019-06-01T10:48:47.390Z,99.90
2019-06-01T10:51:16.766Z,99.90
2019-06-01T10:53:46.182Z,99.90
2019-06-01T10:56:15.644Z,99.90
2019-06-01T10:58:59.584Z,99.90
2019-06-01T11:01:16.185Z,99.90
2019-06-01T11:03:45.632Z,99.90
2019-06-01T11:06:15.081Z,99.90
2019-06-01T11:08:44.468Z,99.90
2019-06-01T11:11:13.909Z,99.90
2019-06-01T11:13:43.386Z,99.90
2019-06-01T11:16:13.226Z,99.90
2019-06-01T11:18:43.608Z,99.90
2019-06-01T11:21:13.140Z,99.90
2019-06-01T11:23:45.216Z,99.90
2019-06-01T11:26:13.624Z,99.90
2019-06-01T11:28:44.342Z,99.90
2019-06-01T11:31:13.937Z,99.90
2019-06-01T11:33:44.315Z,99.90
2019-06-01T11:36:14.287Z,99.90
2019-06-01T11:38:44.976Z,99.90
2019-06-01T11:41:18.313Z,99.90
2019-06-01T11:43:46.215Z,99.90
2019-06-01T11:46:15.915Z,99.90
2019-06-01T11:48:45.477Z,99.90
2019-06-01T11:51:15.076Z,99.90
2019-06-01T11:53:45.674Z,99.90
2019-06-01T11:56:15.413Z,99.90
2019-06-01T11:58:45.681Z,99.90
2019-06-01T12:01:15.238Z,99.90
2019-06-01T12:03:45.975Z,99.90
2019-06-01T12:06:15.567Z,99.90
2019-06-01T12:08:46.212Z,99.90
2019-06-01T12:11:15.821Z,99.90
2019-06-01T12:13:46.585Z,99.90
2019-06-01T12:16:16.195Z,99.90
2019-06-01T12:18:46.753Z,99.90
2019-06-01T12:21:16.336Z,99.90
2019-06-01T12:23:45.803Z,99.90
2019-06-01T12:26:15.303Z,99.90
2019-06-01T12:28:45.827Z,99.90
2019-06-01T12:31:15.384Z,99.90
2019-06-01T12:33:46.266Z,99.90
2019-06-01T12:36:15.841Z,99.90
2019-06-01T12:38:52.481Z,99.90
2019-06-01T12:41:22.931Z,99.90
2019-06-01T12:44:30.380Z,99.90
2019-06-01T12:46:59.797Z,99.90
2019-06-01T12:49:29.247Z,99.90
2019-06-01T12:51:58.705Z,99.90
2019-06-01T12:54:28.116Z,99.90
2019-06-01T12:56:57.516Z,99.90
2019-06-01T12:59:26.798Z,99.90
2019-06-01T13:01:56.245Z,99.90
2019-06-01T13:04:25.714Z,99.90
2019-06-01T13:06:55.023Z,99.90
2019-06-01T13:09:24.496Z,99.90
2019-06-01T13:11:53.860Z,99.90
2019-06-01T13:14:23.278Z,99.90
2019-06-01T13:17:06.378Z,99.90
2019-06-01T13:19:23.949Z,99.90
2019-06-01T13:21:53.282Z,99.90
2019-06-01T13:24:22.686Z,99.90
2019-06-01T13:26:52.128Z,99.90
2019-06-01T13:29:22.507Z,99.90
2019-06-01T13:31:52.600Z,99.90
2019-06-01T13:34:22.032Z,99.90
2019-06-01T13:36:51.500Z,99.90
2019-06-01T13:39:20.943Z,99.90
2019-06-01T13:41:51.518Z,99.90
2019-06-01T13:44:21.063Z,99.90
2019-06-01T13:46:51.502Z,99.90
2019-06-01T13:49:20.896Z,99.90
2019-06-01T13:51:50.509Z,99.90
2019-06-01T13:54:20.062Z,99.90
2019-06-01T13:56:50.881Z,99.90
2019-06-01T13:59:20.432Z,99.90
2019-06-01T14:01:51.052Z,99.90
2019-06-01T14:04:20.954Z,99.90
2019-06-01T14:06:51.165Z,99.90
2019-06-01T14:09:21.998Z,99.90
2019-06-01T14:11:51.754Z,99.90
2019-06-01T14:14:21.215Z,99.90
2019-06-01T14:16:51.719Z,99.90
2019-06-01T14:19:21.447Z,99.90
2019-06-01T14:21:51.969Z,99.90
2019-06-01T14:24:21.860Z,99.90
2019-06-01T14:26:52.311Z,99.90
2019-06-01T14:29:21.917Z,99.90
2019-06-01T14:31:53.146Z,99.90
2019-06-01T14:34:22.420Z,99.90
2019-06-01T14:36:52.701Z,99.90
2019-06-01T14:39:22.143Z,99.90
2019-06-01T14:41:51.609Z,99.90
2019-06-01T14:44:20.944Z,99.90
2019-06-01T14:47:01.047Z,99.90
2019-06-01T14:49:21.508Z,99.90
2019-06-01T14:51:51.541Z,99.90
2019-06-01T14:54:21.001Z,99.90
2019-06-01T14:56:51.701Z,99.90
2019-06-01T14:59:21.228Z,99.90
2019-06-01T15:01:50.562Z,99.90
2019-06-01T15:04:20.014Z,99.90
2019-06-01T15:06:50.201Z,99.90
2019-06-01T15:09:20.126Z,99.90
2019-06-01T15:11:50.612Z,99.90
2019-06-01T15:14:21.168Z,99.90
2019-06-01T15:16:51.668Z,99.90
2019-06-01T15:19:21.463Z,99.90
2019-06-01T15:21:52.095Z,99.90
2019-06-01T15:24:21.781Z,99.90
2019-06-01T15:26:52.373Z,99.90
2019-06-01T15:29:22.091Z,99.90
2019-06-01T15:31:52.907Z,99.90
2019-06-01T15:34:22.431Z,99.20
2019-06-01T15:36:51.855Z,99.10
2019-06-01T15:39:24.642Z,99.50
2019-06-01T15:41:53.026Z,99.90
2019-06-01T15:44:22.632Z,99.90
2019-06-01T15:46:53.523Z,99.40
2019-06-01T15:49:23.354Z,99.80
2019-06-01T15:51:53.643Z,99.80
2019-06-01T15:54:23.319Z,99.90
2019-06-01T15:56:52.777Z,99.90
2019-06-01T15:59:22.205Z,99.50
2019-06-01T16:01:52.965Z,98.50
2019-06-01T16:04:22.589Z,98.10
2019-06-01T16:06:53.061Z,97.80
2019-06-01T16:09:22.644Z,97.60
2019-06-01T16:11:53.396Z,97.90
2019-06-01T16:14:22.864Z,97.70
2019-06-01T16:16:53.722Z,97.20
2019-06-01T16:19:23.307Z,98.10
2019-06-01T16:21:53.712Z,98.30
2019-06-01T16:24:23.229Z,98.10
2019-06-01T16:26:52.574Z,98.50
2019-06-01T16:29:22.108Z,98.00
2019-06-01T16:31:51.528Z,97.80
2019-06-01T16:34:21.006Z,98.30
2019-06-01T16:36:50.518Z,99.00
2019-06-01T16:39:20.018Z,99.50
2019-06-01T16:41:49.455Z,99.20
2019-06-01T16:44:19.941Z,99.20
2019-06-01T16:46:49.664Z,99.90
2019-06-01T16:49:19.068Z,99.90
2019-06-01T16:51:56.718Z,99.90
2019-06-01T16:54:26.399Z,99.90
2019-06-01T16:56:56.080Z,99.90
2019-06-01T16:59:25.494Z,99.90
2019-06-01T17:01:56.402Z,99.90
2019-06-01T17:04:26.218Z,99.90
2019-06-01T17:06:56.548Z,99.90
2019-06-01T17:09:26.183Z,99.90
2019-06-01T17:11:56.609Z,99.90
2019-06-01T17:14:26.067Z,99.90
2019-06-01T17:16:56.990Z,99.90
2019-06-01T17:19:26.456Z,99.90
2019-06-01T17:21:57.221Z,99.90
2019-06-01T17:24:26.790Z,99.90
2019-06-01T17:26:56.097Z,99.90
2019-06-01T17:29:25.643Z,99.90
2019-06-01T17:32:12.649Z,99.90
2019-06-01T17:34:26.088Z,99.90
2019-06-01T17:36:55.467Z,99.90
2019-06-01T17:39:25.073Z,99.90
2019-06-01T17:41:54.472Z,99.90
2019-06-01T17:44:23.931Z,99.90
2019-06-01T17:46:54.248Z,99.90
2019-06-01T17:49:23.728Z,99.90
2019-06-01T17:51:53.212Z,99.90
2019-06-01T17:54:22.681Z,99.90
2019-06-01T17:56:51.980Z,99.90
2019-06-01T17:59:21.383Z,99.90
2019-06-01T18:01:50.757Z,99.90
2019-06-01T18:04:20.218Z,99.90
2019-06-01T18:06:49.657Z,99.90
2019-06-01T18:09:19.014Z,99.90
2019-06-01T18:11:48.419Z,99.90
2019-06-01T18:14:18.412Z,99.90
2019-06-01T18:16:47.716Z,99.90
2019-06-01T18:19:17.120Z,99.90
2019-06-01T18:21:46.584Z,99.90
2019-06-01T18:24:15.925Z,99.90
2019-06-01T18:26:45.395Z,99.90
2019-06-01T18:29:14.845Z,99.90
2019-06-01T18:31:44.367Z,99.90
2019-06-01T18:34:13.801Z,99.90
2019-06-01T18:36:43.236Z,99.90
2019-06-01T18:39:13.704Z,99.90
2019-06-01T18:41:43.342Z,99.90
2019-06-01T18:44:13.958Z,99.90
2019-06-01T18:46:43.647Z,99.90
2019-06-01T18:49:16.231Z,99.90
2019-06-01T18:51:44.889Z,99.90
2019-06-01T18:54:15.156Z,99.90
2019-06-01T18:56:44.671Z,99.90
2019-06-01T18:59:14.486Z,99.90
2019-06-01T19:01:44.075Z,99.90
2019-06-01T19:04:15.825Z,99.90
2019-06-01T19:06:45.544Z,99.90
2019-06-01T19:09:15.663Z,99.90
2019-06-01T19:11:45.168Z,99.90
2019-06-01T19:14:15.919Z,99.90
2019-06-01T19:16:45.565Z,99.90
2019-06-01T19:19:14.994Z,99.90
2019-06-01T19:21:44.542Z,99.90
2019-06-01T19:24:14.678Z,99.90
2019-06-01T19:26:44.304Z,99.90
2019-06-01T19:29:14.895Z,99.90
2019-06-01T19:31:44.923Z,99.90
2019-06-01T19:34:15.110Z,99.90
2019-06-01T19:36:46.662Z,99.90
2019-06-01T19:39:17.326Z,99.90
2019-06-01T19:41:47.041Z,99.90
2019-06-01T19:44:17.752Z,99.90
2019-06-01T19:46:47.367Z,99.90
2019-06-01T19:49:17.092Z,99.90
2019-06-01T19:51:46.539Z,99.90
2019-06-01T19:54:16.993Z,99.90
2019-06-01T19:56:46.594Z,99.90
2019-06-01T19:59:16.100Z,99.90
2019-06-01T20:01:45.588Z,99.90
2019-06-01T20:04:14.932Z,99.90
2019-06-01T20:06:44.389Z,99.90
2019-06-01T20:09:14.981Z,99.90
2019-06-01T20:12:00.580Z,99.90
2019-06-01T20:14:16.428Z,99.90
2019-06-01T20:16:45.869Z,99.90
2019-06-01T20:19:15.616Z,99.90
2019-06-01T20:21:45.176Z,99.90
2019-06-01T20:24:15.242Z,99.90
2019-06-01T20:26:49.114Z,99.90
2019-06-01T20:29:16.038Z,99.90
2019-06-01T20:31:45.475Z,99.90
2019-06-01T20:34:15.856Z,99.90
2019-06-01T20:36:45.408Z,99.90
2019-06-01T20:39:16.134Z,99.90
2019-06-01T20:41:45.748Z,99.90
2019-06-01T20:44:15.084Z,99.90
2019-06-01T20:46:44.493Z,99.90
2019-06-01T20:49:14.481Z,99.90
2019-06-01T20:51:43.980Z,99.90
2019-06-01T20:54:13.416Z,99.90
2019-06-01T20:56:43.225Z,99.90
2019-06-01T20:59:13.387Z,99.90
2019-06-01T21:01:42.950Z,99.90
2019-06-01T21:04:13.963Z,99.90
2019-06-01T21:06:43.646Z,99.90
2019-06-01T21:09:13.729Z,99.90
2019-06-01T21:11:43.213Z,99.90
2019-06-01T21:14:13.859Z,99.90
2019-06-01T21:16:43.548Z,99.90
2019-06-01T21:19:14.062Z,99.90
2019-06-01T21:21:43.672Z,99.90
2019-06-01T21:24:13.031Z,99.90
2019-06-01T21:26:42.582Z,99.90
2019-06-01T21:29:12.013Z,99.90
2019-06-01T21:31:41.494Z,99.90
2019-06-01T21:34:10.999Z,99.90
2019-06-01T21:36:41.782Z,99.90
2019-06-01T21:39:11.506Z,99.90
2019-06-01T21:41:41.045Z,99.90
2019-06-01T21:44:10.357Z,99.90
2019-06-01T21:46:39.774Z,99.90
2019-06-01T21:49:09.224Z,99.90
2019-06-01T21:51:38.569Z,99.90
2019-06-01T21:54:08.051Z,99.90
2019-06-01T21:56:37.367Z,99.90
2019-06-01T21:59:06.804Z,99.90
2019-06-01T22:01:36.164Z,99.90
2019-06-01T22:04:06.224Z,99.90
2019-06-01T22:06:35.613Z,99.90
2019-06-01T22:09:07.397Z,99.90
2019-06-01T22:11:36.826Z,99.90
2019-06-01T22:14:06.308Z,99.90
2019-06-01T22:16:35.737Z,99.90
2019-06-01T22:19:05.157Z,99.90
2019-06-01T22:21:34.584Z,99.90
2019-06-01T22:24:04.044Z,99.90
2019-06-01T22:26:33.381Z,99.90
2019-06-01T22:29:02.841Z,99.90
2019-06-01T22:31:32.308Z,99.90
2019-06-01T22:34:01.679Z,99.90
2019-06-01T22:36:31.713Z,99.90
2019-06-01T22:39:01.220Z,99.90
2019-06-01T22:41:30.616Z,99.90
2019-06-01T22:44:00.049Z,99.90
2019-06-01T22:46:29.565Z,99.90
2019-06-01T22:48:59.020Z,99.90
2019-06-01T22:51:29.531Z,99.90
2019-06-01T22:53:59.147Z,99.90
2019-06-01T22:56:29.434Z,99.90
2019-06-01T22:58:58.879Z,99.90
2019-06-01T23:01:28.827Z,99.90
2019-06-01T23:03:58.485Z,99.90
2019-06-01T23:06:29.100Z,99.90
2019-06-01T23:08:58.818Z,99.90
2019-06-01T23:11:29.498Z,99.90
2019-06-01T23:13:58.988Z,99.90
2019-06-01T23:16:29.520Z,99.90
2019-06-01T23:18:59.324Z,99.90
2019-06-01T23:21:30.203Z,99.90
2019-06-01T23:23:59.689Z,99.90
2019-06-01T23:26:30.189Z,99.90
2019-06-01T23:28:59.849Z,99.90
2019-06-01T23:31:30.368Z,99.90
2019-06-01T23:33:59.883Z,99.90
2019-06-01T23:36:29.227Z,99.90
2019-06-01T23:38:58.992Z,99.90
2019-06-01T23:41:28.760Z,99.90
2019-06-01T23:44:10.913Z,99.90
2019-06-01T23:46:29.382Z,99.90
2019-06-01T23:48:58.852Z,99.90
2019-06-01T23:51:29.536Z,99.90
2019-06-01T23:53:59.237Z,99.90
2019-06-01T23:56:29.799Z,99.90
2019-06-01T23:58:59.157Z,99.90
